Latest Weather Observations for Rowley Shoals

IDW60801

Issued at 11:33 pm WST Saturday 25 April 2015 (issued every 30 minutes, with the page automatically refreshed every 10 minutes)

About weather observations | Map of weather stations | Latest weather observations for WA | Other Formats
Station Details ID: 200713 Name: ROWLEY SHOALS Lat: -17.52 Lon: 118.95 Height: 0.0 m
Data from the previous 72 hours. | See also: Recent months for locations in Western Australia
Date/Time
WST
Temp
°C
App
Temp
°C
Dew
Point
Rel
Hum
%
Delta-T
°C
Wind Press
QNH
hPa
Press
MSL
hPa
Rain
since 9 am
mm
Dir
 
Spd
km/h
Gust
km/h
Spd
kts
Gust
kts
25/11:30pm - - - - - E 30 35 16 19 1012.4 1012.4 -
25/11:00pm - - - - - ESE 32 35 17 19 1012.5 1012.5 -
25/10:30pm - - - - - ESE 30 35 16 19 1012.8 1012.8 -
25/10:00pm - - - - - ESE 32 35 17 19 1012.7 1012.7 -
25/09:30pm - - - - - E 33 39 18 21 1012.7 1012.7 -
25/09:00pm - - - - - E 35 41 19 22 1012.7 1012.6 -
25/08:30pm - - - - - E 33 41 18 22 1012.7 1012.7 -
25/08:00pm - - - - - E 35 41 19 22 1012.5 1012.4 -
25/07:30pm - - - - - E 33 39 18 21 1012.2 1012.2 -
25/07:00pm - - - - - E 35 44 19 24 1011.7 1011.7 -
25/06:30pm - - - - - E 35 39 19 21 1011.5 1011.5 -
25/06:00pm - - - - - E 35 39 19 21 1011.3 1011.2 -
25/05:30pm - - - - - E 33 37 18 20 1011.0 1011.0 -
25/05:00pm - - - - - E 35 39 19 21 1010.8 1010.8 -
25/04:30pm - - - - - E 35 41 19 22 1010.4 1010.4 -
25/04:00pm - - - - - E 35 41 19 22 1010.3 1010.2 -
25/03:30pm - - - - - E 35 41 19 22 1009.9 1009.9 -
25/03:00pm - - - - - E 33 39 18 21 1009.8 1009.8 -
25/02:30pm - - - - - E 33 39 18 21 1009.8 1009.8 -
25/02:00pm - - - - - E 33 41 18 22 1009.7 1009.6 -
25/01:30pm - - - - - E 33 39 18 21 1010.1 1010.1 -
25/01:00pm - - - - - E 35 39 19 21 1010.0 1010.0 -
25/12:30pm - - - - - E 35 41 19 22 1010.2 1010.2 -
25/12:00pm - - - - - E 33 39 18 21 1010.7 1010.4 -
25/11:30am - - - - - E 35 43 19 23 1010.9 1010.9 -
25/11:00am - - - - - E 33 41 18 22 1011.5 1011.2 -
25/10:30am - - - - - E 35 44 19 24 1011.8 1011.8 -
25/10:00am - - - - - E 37 43 20 23 1011.9 1011.9 -
25/09:30am - - - - - E 32 37 17 20 1012.2 1012.2 -
25/09:00am - - - - - E 33 41 18 22 1012.0 1012.0 -
25/08:30am - - - - - E 33 39 18 21 1011.7 1011.7 -
25/08:00am - - - - - ENE 37 44 20 24 1011.2 1011.1 -
25/07:30am - - - - - E 37 44 20 24 1011.0 1011.0 -
25/07:00am - - - - - E 37 44 20 24 1010.8 1010.6 -
25/06:30am - - - - - E 37 44 20 24 1010.7 1010.7 -
25/06:00am - - - - - E 41 48 22 26 1010.0 1010.0 -
25/05:30am - - - - - E 43 48 23 26 1009.6 1009.6 -
25/05:00am - - - - - E 44 50 24 27 1009.4 1009.4 -
25/04:30am - - - - - ESE 44 52 24 28 1009.1 1009.1 -
25/04:00am - - - - - ESE 43 50 23 27 1009.1 1009.2 -
25/03:30am - - - - - E 39 44 21 24 1009.3 1009.3 -
25/03:00am - - - - - E 32 43 17 23 1009.5 1009.3 -
25/02:30am - - - - - E 32 37 17 20 1009.6 1009.6 -
25/02:00am - - - - - ESE 33 37 18 20 1010.0 1009.9 -
25/01:30am - - - - - ESE 35 43 19 23 1010.3 1010.3 -
25/01:00am - - - - - E 37 43 20 23 1010.5 1010.2 -
25/12:30am - - - - - E 39 44 21 24 1010.3 1010.3 -
25/12:00am - - - - - E 33 41 18 22 1010.5 1010.5 -
 
Date/Time
WST
Temp
°C
App
Temp
°C
Dew
Point
Rel
Hum
%
Delta-T
°C
Wind Press
QNH
hPa
Press
MSL
hPa
Rain
since 9 am
mm
Dir
 
Spd
km/h
Gust
km/h
Spd
kts
Gust
kts
24/11:30pm - - - - - E 33 39 18 21 1010.7 1010.7 -
24/11:00pm - - - - - E 33 39 18 21 1010.8 1010.7 -
24/10:30pm - - - - - E 32 37 17 20 1010.8 1010.8 -
24/10:00pm - - - - - E 35 41 19 22 1011.0 1010.9 -
24/09:30pm - - - - - E 33 39 18 21 1010.9 1010.9 -
24/09:00pm - - - - - E 35 41 19 22 1011.0 1010.8 -
24/08:30pm - - - - - E 33 37 18 20 1011.0 1011.0 -
24/08:00pm - - - - - E 33 39 18 21 1010.6 1010.6 -
24/07:30pm - - - - - E 30 35 16 19 1010.4 1010.4 -
24/07:00pm - - - - - E 32 35 17 19 1010.0 1009.9 -
24/06:30pm - - - - - E 32 37 17 20 1009.6 1009.6 -
24/06:00pm - - - - - E 32 35 17 19 1009.3 1009.3 -
24/05:30pm - - - - - E 32 39 17 21 1009.1 1009.1 -
24/05:00pm - - - - - E 33 37 18 20 1008.9 1009.0 -
24/04:30pm - - - - - E 35 39 19 21 1008.8 1008.8 -
24/04:00pm - - - - - E 35 41 19 22 1008.5 1008.4 -
24/03:30pm - - - - - E 35 41 19 22 1008.5 1008.5 -
24/03:00pm - - - - - E 26 33 14 18 1008.5 1008.4 -
24/02:30pm - - - - - E 32 35 17 19 1008.4 1008.4 -
24/02:00pm - - - - - E 35 41 19 22 1008.5 1008.4 -
24/01:30pm - - - - - E 39 44 21 24 1008.5 1008.5 -
24/01:00pm - - - - - E 37 44 20 24 1008.7 1008.6 -
24/12:30pm - - - - - E 39 46 21 25 1008.8 1008.8 -
24/12:00pm - - - - - E 39 46 21 25 1009.2 1008.9 -
24/11:30am - - - - - E 37 46 20 25 1009.4 1009.4 -
24/11:00am - - - - - E 39 46 21 25 1009.6 1009.4 -
24/10:30am - - - - - E 43 50 23 27 1010.0 1010.0 -
24/10:00am - - - - - E 41 48 22 26 1010.4 1010.2 -
24/09:30am - - - - - E 43 50 23 27 1010.3 1010.3 -
24/09:00am - - - - - E 43 48 23 26 1010.0 1010.0 -
24/08:30am - - - - - E 43 50 23 27 1009.5 1009.5 -
24/08:00am - - - - - ESE 43 50 23 27 1009.5 1009.4 -
24/07:30am - - - - - ESE 37 44 20 24 1009.6 1009.6 -
24/07:00am - - - - - ESE 43 48 23 26 1009.2 1009.2 -
24/06:30am - - - - - ESE 41 48 22 26 1008.8 1008.8 -
24/06:00am - - - - - SE 43 50 23 27 1008.6 1008.5 -
24/05:51am - - - - - SE 41 46 22 25 1008.4 1008.4 -
24/05:30am - - - - - ESE 39 46 21 25 1008.4 1008.4 -
24/05:00am - - - - - ESE 39 44 21 24 1008.1 1008.2 -
24/04:30am - - - - - E 44 52 24 28 1008.0 1008.0 -
24/04:12am - - - - - ESE 35 54 19 29 1007.6 1007.6 -
24/04:00am - - - - - E 43 50 23 27 1008.0 1008.0 -
24/03:30am - - - - - E 33 39 18 21 1008.3 1008.3 -
24/03:00am - - - - - E 35 43 19 23 1008.5 1008.3 -
24/02:30am - - - - - E 39 46 21 25 1008.5 1008.5 -
24/02:00am - - - - - E 37 44 20 24 1008.1 1008.1 -
24/01:30am - - - - - E 41 46 22 25 1008.3 1008.3 -
24/01:00am - - - - - E 35 41 19 22 1008.6 1008.3 -
24/12:30am - - - - - ENE 37 43 20 23 1008.7 1008.7 -
24/12:00am - - - - - E 39 44 21 24 1008.9 1008.8 -
 
Date/Time
WST
Temp
°C
App
Temp
°C
Dew
Point
Rel
Hum
%
Delta-T
°C
Wind Press
QNH
hPa
Press
MSL
hPa
Rain
since 9 am
mm
Dir
 
Spd
km/h
Gust
km/h
Spd
kts
Gust
kts
23/11:30pm - - - - - E 32 37 17 20 1009.0 1009.0 -
23/11:00pm - - - - - E 32 39 17 21 1009.1 1009.0 -
23/10:30pm - - - - - E 30 35 16 19 1009.3 1009.3 -
23/10:00pm - - - - - E 39 44 21 24 1009.4 1009.2 -
23/09:30pm - - - - - E 35 39 19 21 1009.3 1009.3 -
23/09:00pm - - - - - E 33 39 18 21 1009.1 1009.0 -
23/08:30pm - - - - - ESE 35 43 19 23 1009.1 1009.1 -
23/08:00pm - - - - - ESE 37 46 20 25 1008.8 1008.8 -
23/07:30pm - - - - - ESE 37 44 20 24 1008.6 1008.6 -
23/07:00pm - - - - - ESE 41 48 22 26 1008.2 1008.1 -
23/06:30pm - - - - - ESE 39 44 21 24 1007.9 1007.9 -
23/06:00pm - - - - - ESE 41 46 22 25 1007.5 1007.4 -
23/05:30pm - - - - - ESE 41 44 22 24 1007.4 1007.4 -
23/05:00pm - - - - - ESE 35 39 19 21 1007.0 1006.9 -
23/04:30pm - - - - - ESE 37 43 20 23 1006.9 1006.9 -
23/04:00pm - - - - - ESE 35 41 19 22 1006.8 1006.8 -
23/03:30pm - - - - - SE 30 33 16 18 1006.6 1006.6 -
23/03:00pm - - - - - SE 22 26 12 14 1006.7 1006.5 -
23/02:30pm - - - - - SSE 26 30 14 16 1006.6 1006.6 -
23/02:00pm - - - - - SSE 22 28 12 15 1006.8 1006.6 -
23/01:30pm - - - - - SSE 9 11 5 6 1006.9 1006.9 -
23/01:00pm - - - - - S 7 9 4 5 1007.1 1006.9 -
23/12:30pm - - - - - W 6 7 3 4 1007.5 1007.5 -
23/12:00pm - - - - - CALM 0 0 0 0 1007.7 1007.5 -
23/11:30am - - - - - N 6 7 3 4 1008.0 1008.0 -
23/11:00am - - - - - N 7 9 4 5 1008.2 1008.0 -
23/10:30am - - - - - N 7 9 4 5 1008.6 1008.6 -
23/10:00am - - - - - N 11 13 6 7 1008.6 1008.5 -
23/09:30am - - - - - N 13 15 7 8 1008.8 1008.8 -
23/09:00am - - - - - NNE 19 20 10 11 1008.7 1008.7 -
23/08:30am - - - - - NNE 9 13 5 7 1008.8 1008.8 -
23/08:00am - - - - - NNE 30 39 16 21 1008.7 1008.6 -
23/07:56am - - - - - N 24 39 13 21 1008.5 1008.5 -
23/07:30am - - - - - NW 19 26 10 14 1008.4 1008.4 -
23/07:00am - - - - - NNE 22 26 12 14 1008.0 1008.0 -
23/06:30am - - - - - NE 20 26 11 14 1007.7 1007.7 -
23/06:00am - - - - - NE 20 26 11 14 1007.4 1007.4 -
23/05:30am - - - - - NNW 19 22 10 12 1007.2 1007.2 -
23/05:00am - - - - - NNW 17 20 9 11 1006.9 1006.9 -
23/04:30am - - - - - N 20 22 11 12 1006.7 1006.7 -
23/04:00am - - - - - N 24 30 13 16 1006.8 1006.6 -
23/03:30am - - - - - N 24 30 13 16 1006.6 1006.6 -
23/03:00am - - - - - N 28 35 15 19 1006.8 1006.6 -
23/02:30am - - - - - NNE 22 28 12 15 1007.0 1007.0 -
23/02:00am - - - - - NNE 26 30 14 16 1006.9 1006.9 -
23/01:30am - - - - - NNE 26 32 14 17 1007.1 1007.1 -
23/01:00am - - - - - NNE 24 28 13 15 1007.1 1007.0 -
23/12:30am - - - - - NNE 28 33 15 18 1007.3 1007.3 -
23/12:00am - - - - - NNE 30 35 16 19 1007.3 1007.3 -

Other Formats:

Comma delimited format used in spreadsheet applications
http://www.bom.gov.au/fwo/IDW60801/IDW60801.94207.axf

JavaScript Object Notation format (JSON) in row-major order
http://www.bom.gov.au/fwo/IDW60801/IDW60801.94207.json